Time;durP1;ratioP1;P1;durP2;ratioP2;P2;SDS_P1;SDS_P2;PMS_P1;PMS_P2;Temp;Humidity;BMP_temperature;BMP_pressure;BME280_temperature;BME280_humidity;BME280_pressure;Samples;Min_cycle;Max_cycle;Signal;HPM_P1;HPM_P2
2023/06/27 00:00:59;;;;;;;;;;;30.10;37.80;;;;;;21086005;28;19979;-63
2023/06/27 00:11:00;;;;;;;;;;;30.20;37.70;;;;;;21085364;28;19931;-64
2023/06/27 00:21:00;;;;;;;;;;;29.90;38.20;;;;;;21084025;28;19963;-64
2023/06/27 00:31:02;;;;;;;;;;;29.60;39.80;;;;;;21083128;28;19971;-64
2023/06/27 00:41:03;;;;;;;;;;;29.60;40.40;;;;;;21082562;28;19974;-63
2023/06/27 00:51:03;;;;;;;;;;;29.50;41.40;;;;;;21082323;28;19924;-63
2023/06/27 01:01:04;;;;;;;;;;;29.20;41.90;;;;;;21081504;28;19976;-63
2023/06/27 01:11:12;;;;;;;;;;;29.20;42.30;;;;;;21079890;28;19931;-63
2023/06/27 01:21:12;;;;;;;;;;;29.10;42.30;;;;;;21079215;28;19932;-63
2023/06/27 01:31:26;;;;;;;;;;;29.00;42.80;;;;;;21080123;28;20373;-63
2023/06/27 01:41:27;;;;;;;;;;;28.70;43.00;;;;;;21078863;28;19977;-63
2023/06/27 01:51:28;;;;;;;;;;;28.50;42.80;;;;;;21094919;28;19928;-63
2023/06/27 02:01:29;;;;;;;;;;;28.40;42.70;;;;;;21095503;28;19932;-64
2023/06/27 02:11:29;;;;;;;;;;;28.20;42.70;;;;;;21095447;28;19931;-63
2023/06/27 02:21:30;;;;;;;;;;;28.20;42.60;;;;;;21093731;28;19951;-64
2023/06/27 02:31:31;;;;;;;;;;;28.10;42.70;;;;;;21093103;28;19924;-63
2023/06/27 02:41:32;;;;;;;;;;;28.00;42.90;;;;;;21092073;28;19974;-63
2023/06/27 02:51:32;;;;;;;;;;;28.00;43.80;;;;;;21091394;28;19970;-63
2023/06/27 03:01:33;;;;;;;;;;;27.80;44.20;;;;;;21088992;28;19927;-63
2023/06/27 03:11:33;;;;;;;;;;;27.70;45.10;;;;;;21091544;28;19928;-64
2023/06/27 03:21:34;;;;;;;;;;;27.60;46.20;;;;;;21088977;28;19927;-64
2023/06/27 03:31:35;;;;;;;;;;;27.40;47.00;;;;;;21088618;28;19931;-62
2023/06/27 03:41:35;;;;;;;;;;;27.40;47.40;;;;;;21087394;28;19932;-63
2023/06/27 03:51:39;;;;;;;;;;;27.10;47.80;;;;;;21086920;28;19924;-63
2023/06/27 04:01:41;;;;;;;;;;;27.00;47.90;;;;;;21085823;28;19931;-63
2023/06/27 04:11:41;;;;;;;;;;;26.80;48.10;;;;;;21084181;28;20281;-64
2023/06/27 04:21:42;;;;;;;;;;;26.70;48.40;;;;;;21084544;28;19924;-64
2023/06/27 04:31:43;;;;;;;;;;;26.60;48.60;;;;;;21084518;28;19924;-65
2023/06/27 04:41:43;;;;;;;;;;;26.60;48.70;;;;;;21082735;28;20022;-63
2023/06/27 04:51:44;;;;;;;;;;;26.50;48.80;;;;;;21081560;28;20101;-63
2023/06/27 05:01:45;;;;;;;;;;;26.40;49.00;;;;;;21081015;28;19924;-63
2023/06/27 05:11:46;;;;;;;;;;;26.40;49.00;;;;;;21080354;28;20005;-63
2023/06/27 05:21:46;;;;;;;;;;;26.30;48.90;;;;;;21079034;28;19924;-64
2023/06/27 05:31:47;;;;;;;;;;;26.20;49.00;;;;;;21079634;28;19928;-62
2023/06/27 05:41:47;;;;;;;;;;;26.20;48.70;;;;;;21079146;28;19924;-64
2023/06/27 05:51:48;;;;;;;;;;;26.30;48.90;;;;;;21078373;28;19928;-64
2023/06/27 06:01:49;;;;;;;;;;;26.20;48.50;;;;;;21077549;28;19931;-64
2023/06/27 06:11:49;;;;;;;;;;;26.30;48.20;;;;;;21077358;28;19928;-63
2023/06/27 06:21:50;;;;;;;;;;;26.20;48.00;;;;;;21076267;28;19931;-64
2023/06/27 06:31:51;;;;;;;;;;;26.30;47.90;;;;;;21082606;28;19924;-63
2023/06/27 06:41:52;;;;;;;;;;;26.50;47.50;;;;;;21089876;28;19931;-63
2023/06/27 06:51:53;;;;;;;;;;;26.60;47.30;;;;;;21090170;28;20380;-64
2023/06/27 07:01:53;;;;;;;;;;;26.90;47.30;;;;;;21089569;28;20018;-64
2023/06/27 07:11:54;;;;;;;;;;;27.20;46.30;;;;;;21088093;28;19975;-63
2023/06/27 07:21:55;;;;;;;;;;;27.70;44.90;;;;;;21088066;28;19946;-63
2023/06/27 07:31:55;;;;;;;;;;;28.20;43.80;;;;;;21087994;28;19931;-66
2023/06/27 07:41:56;;;;;;;;;;;28.50;42.90;;;;;;21086613;28;19967;-63
2023/06/27 07:51:56;;;;;;;;;;;28.70;42.00;;;;;;21086318;28;20019;-63
2023/06/27 08:01:57;;;;;;;;;;;29.00;41.90;;;;;;21168556;28;20089;-63
2023/06/27 08:11:58;;;;;;;;;;;29.30;40.70;;;;;;21167956;28;19927;-64
2023/06/27 08:21:58;;;;;;;;;;;29.50;40.20;;;;;;21167492;28;20024;-65
2023/06/27 08:31:59;;;;;;;;;;;29.70;40.00;;;;;;21166484;28;19924;-67
2023/06/27 08:42:01;;;;;;;;;;;30.10;39.20;;;;;;21165345;28;20434;-64
2023/06/27 08:52:03;;;;;;;;;;;30.10;39.40;;;;;;21164565;28;19923;-64
2023/06/27 09:02:05;;;;;;;;;;;30.10;39.00;;;;;;21164108;28;20018;-63
2023/06/27 09:12:06;;;;;;;;;;;30.40;38.40;;;;;;21165235;28;20016;-63
2023/06/27 09:22:07;;;;;;;;;;;30.70;37.40;;;;;;21163891;28;20037;-64
2023/06/27 09:32:08;;;;;;;;;;;30.90;37.00;;;;;;21163802;28;19988;-64
2023/06/27 09:42:09;;;;;;;;;;;31.00;37.50;;;;;;21162378;28;19931;-57
2023/06/27 09:52:13;;;;;;;;;;;31.30;37.70;;;;;;21160914;28;20241;-58
2023/06/27 10:02:14;;;;;;;;;;;31.30;37.40;;;;;;21160375;28;19930;-58
2023/06/27 10:12:15;;;;;;;;;;;31.20;37.60;;;;;;21162125;27;19946;-60
2023/06/27 10:22:17;;;;;;;;;;;31.80;36.90;;;;;;21177984;28;20372;-60
2023/06/27 10:32:19;;;;;;;;;;;31.80;36.40;;;;;;21148573;27;19978;-59
2023/06/27 10:42:19;;;;;;;;;;;32.20;34.60;;;;;;21156043;28;19923;-60
2023/06/27 10:52:20;;;;;;;;;;;32.40;34.60;;;;;;21164685;27;19924;-58
2023/06/27 11:02:31;;;;;;;;;;;32.50;35.00;;;;;;21106549;28;19930;-58
2023/06/27 11:12:32;;;;;;;;;;;32.40;35.30;;;;;;21192209;27;19923;-60
2023/06/27 11:22:33;;;;;;;;;;;32.70;34.80;;;;;;21235081;27;19928;-60
2023/06/27 11:32:35;;;;;;;;;;;32.80;33.90;;;;;;21189343;27;19934;-61
2023/06/27 11:42:36;;;;;;;;;;;33.20;32.60;;;;;;21170017;28;19976;-59
2023/06/27 11:52:37;;;;;;;;;;;33.50;32.70;;;;;;21170928;28;19924;-60
2023/06/27 12:02:37;;;;;;;;;;;33.40;32.10;;;;;;21168896;28;19960;-57
2023/06/27 12:12:38;;;;;;;;;;;33.60;31.80;;;;;;21166789;28;19950;-58
2023/06/27 12:22:39;;;;;;;;;;;33.60;31.80;;;;;;21166712;28;20014;-60
2023/06/27 12:32:40;;;;;;;;;;;34.00;30.40;;;;;;21166706;28;20059;-56
2023/06/27 12:42:42;;;;;;;;;;;33.80;30.50;;;;;;21166862;28;19970;-57
2023/06/27 12:52:47;;;;;;;;;;;34.00;30.30;;;;;;21165561;28;19961;-58
2023/06/27 13:02:48;;;;;;;;;;;34.30;30.00;;;;;;21165779;28;19924;-57
2023/06/27 13:12:49;;;;;;;;;;;34.50;29.30;;;;;;21164007;28;19923;-56
2023/06/27 13:22:50;;;;;;;;;;;34.50;29.10;;;;;;21163150;28;19923;-56
2023/06/27 13:32:51;;;;;;;;;;;34.70;28.60;;;;;;21163489;28;19928;-57
2023/06/27 13:42:51;;;;;;;;;;;34.70;27.90;;;;;;21171848;28;19924;-58
2023/06/27 13:52:52;;;;;;;;;;;34.80;27.50;;;;;;21180787;28;20023;-56
2023/06/27 14:02:52;;;;;;;;;;;35.10;26.40;;;;;;21179446;28;19923;-57
2023/06/27 14:12:54;;;;;;;;;;;35.10;26.00;;;;;;21179063;28;19924;-58
2023/06/27 14:22:58;;;;;;;;;;;35.00;26.80;;;;;;21178221;28;19924;-57
2023/06/27 14:32:59;;;;;;;;;;;35.00;26.00;;;;;;21177323;28;20307;-57
2023/06/27 14:43:00;;;;;;;;;;;35.00;26.00;;;;;;21176376;28;20028;-57
2023/06/27 14:53:00;;;;;;;;;;;35.00;25.80;;;;;;21173656;28;19924;-58
2023/06/27 15:03:01;;;;;;;;;;;35.30;25.80;;;;;;21173370;28;19924;-57
2023/06/27 15:13:02;;;;;;;;;;;35.50;25.70;;;;;;21174362;28;20005;-57
2023/06/27 15:23:02;;;;;;;;;;;35.50;25.60;;;;;;21173598;28;19924;-59
2023/06/27 15:33:03;;;;;;;;;;;35.70;24.10;;;;;;21173344;28;19946;-62
2023/06/27 15:43:04;;;;;;;;;;;36.00;24.00;;;;;;21171449;28;19924;-63
2023/06/27 15:53:04;;;;;;;;;;;35.50;25.00;;;;;;21169665;28;19946;-61
2023/06/27 16:03:05;;;;;;;;;;;35.20;23.90;;;;;;21168358;28;19923;-61
2023/06/27 16:13:06;;;;;;;;;;;35.40;24.40;;;;;;21167826;28;19967;-60
2023/06/27 16:23:06;;;;;;;;;;;35.20;25.20;;;;;;21166610;28;19931;-62
2023/06/27 16:33:07;;;;;;;;;;;35.00;24.70;;;;;;21167597;28;20395;-64
2023/06/27 16:43:08;;;;;;;;;;;35.00;23.30;;;;;;21167305;28;19974;-63
2023/06/27 16:53:09;;;;;;;;;;;35.30;23.70;;;;;;21166405;28;19967;-62
2023/06/27 17:03:09;;;;;;;;;;;35.30;23.90;;;;;;21164890;28;20004;-60
2023/06/27 17:13:10;;;;;;;;;;;35.20;23.20;;;;;;21164221;28;20014;-60
2023/06/27 17:23:11;;;;;;;;;;;35.10;24.50;;;;;;21147869;28;19923;-59
2023/06/27 17:33:13;;;;;;;;;;;34.70;25.10;;;;;;21161956;28;20642;-59
2023/06/27 17:43:14;;;;;;;;;;;34.60;25.10;;;;;;21163326;28;19924;-58
2023/06/27 17:53:15;;;;;;;;;;;34.50;24.60;;;;;;21163622;28;19924;-58
2023/06/27 18:03:16;;;;;;;;;;;34.90;24.50;;;;;;21163592;28;20077;-58
2023/06/27 18:13:16;;;;;;;;;;;35.00;24.80;;;;;;21162576;28;19959;-58
2023/06/27 18:23:17;;;;;;;;;;;35.00;24.80;;;;;;21161912;28;19924;-58
2023/06/27 18:33:18;;;;;;;;;;;34.80;24.90;;;;;;21176490;28;19930;-58
2023/06/27 18:43:18;;;;;;;;;;;34.70;26.30;;;;;;21176947;28;19932;-57
2023/06/27 18:53:19;;;;;;;;;;;34.50;26.60;;;;;;21176353;28;19927;-58
2023/06/27 19:03:20;;;;;;;;;;;34.20;26.60;;;;;;21174782;28;19924;-58
2023/06/27 19:13:20;;;;;;;;;;;34.10;26.60;;;;;;21173258;28;19931;-59
2023/06/27 19:23:21;;;;;;;;;;;33.90;26.80;;;;;;21171859;28;19931;-58
2023/06/27 19:33:23;;;;;;;;;;;33.80;27.50;;;;;;21171574;28;19930;-58
2023/06/27 19:43:23;;;;;;;;;;;33.50;29.50;;;;;;21169591;28;19923;-59
2023/06/27 19:53:24;;;;;;;;;;;33.20;30.70;;;;;;21169142;28;20432;-59
2023/06/27 20:03:25;;;;;;;;;;;33.00;31.90;;;;;;21169968;28;19924;-60
2023/06/27 20:13:28;;;;;;;;;;;32.70;32.70;;;;;;21168954;28;20014;-58
2023/06/27 20:23:29;;;;;;;;;;;32.50;33.60;;;;;;21166751;28;19967;-59
2023/06/27 20:33:29;;;;;;;;;;;32.30;34.60;;;;;;21167525;28;19931;-58
2023/06/27 20:43:30;;;;;;;;;;;32.20;34.90;;;;;;21165981;28;19979;-60
2023/06/27 20:53:31;;;;;;;;;;;32.10;35.70;;;;;;21166253;28;20413;-59
2023/06/27 21:03:31;;;;;;;;;;;31.80;36.30;;;;;;21164189;28;19924;-58
2023/06/27 21:13:32;;;;;;;;;;;31.60;36.60;;;;;;21165000;28;20456;-58
2023/06/27 21:23:32;;;;;;;;;;;31.60;36.80;;;;;;21164211;28;19959;-58
2023/06/27 21:33:33;;;;;;;;;;;31.50;37.20;;;;;;21164247;28;19923;-59
2023/06/27 21:43:34;;;;;;;;;;;31.50;37.10;;;;;;21161942;28;19924;-57
2023/06/27 21:53:34;;;;;;;;;;;31.30;36.60;;;;;;21162947;28;19928;-61
2023/06/27 22:03:36;;;;;;;;;;;31.20;35.10;;;;;;21170909;28;20049;-59
2023/06/27 22:13:37;;;;;;;;;;;31.10;34.90;;;;;;21179889;28;19931;-59
2023/06/27 22:23:37;;;;;;;;;;;31.00;34.80;;;;;;21178511;28;19923;-61
2023/06/27 22:33:38;;;;;;;;;;;30.70;36.30;;;;;;21178437;28;19923;-59
2023/06/27 22:43:38;;;;;;;;;;;30.60;36.50;;;;;;21177299;28;19924;-59
2023/06/27 22:53:43;;;;;;;;;;;30.50;36.90;;;;;;21176615;28;19969;-59
2023/06/27 23:03:43;;;;;;;;;;;30.60;37.50;;;;;;21175392;28;19970;-58
2023/06/27 23:13:44;;;;;;;;;;;30.30;38.70;;;;;;21174637;28;20292;-58
2023/06/27 23:23:45;;;;;;;;;;;30.20;39.50;;;;;;21172768;28;19982;-57
2023/06/27 23:33:46;;;;;;;;;;;30.00;40.50;;;;;;21173973;28;20356;-60
2023/06/27 23:43:46;;;;;;;;;;;30.00;41.00;;;;;;21171383;28;20037;-59
2023/06/27 23:53:47;;;;;;;;;;;29.80;41.40;;;;;;21170374;28;19986;-57
